Time;durP1;ratioP1;P1;durP2;ratioP2;P2;SDS_P1;SDS_P2;PMS_P1;PMS_P2;Temp;Humidity;BMP_temperature;BMP_pressure;BME280_temperature;BME280_humidity;BME280_pressure;Samples;Min_cycle;Max_cycle;Signal;HPM_P1;HPM_P2
2022/10/13 00:01:45;;;;;;;12.10;6.80;;;;;;;7.87;85.88;101306.36;104130;1303;61056;-78
2022/10/13 00:04:12;;;;;;;10.50;7.00;;;;;;;7.81;85.81;101310.04;103618;1289;60617;-78
2022/10/13 00:06:38;;;;;;;15.20;7.10;;;;;;;7.76;86.02;101301.41;103981;1304;58420;-78
2022/10/13 00:09:05;;;;;;;12.00;6.80;;;;;;;7.72;86.29;101304.39;103735;1299;60293;-78
2022/10/13 00:11:31;;;;;;;13.60;8.20;;;;;;;7.67;86.65;101303.79;104264;1290;58365;-79
2022/10/13 00:14:01;;;;;;;14.70;7.50;;;;;;;7.64;86.74;101303.17;104073;1297;60489;-79
2022/10/13 00:16:29;;;;;;;13.70;7.80;;;;;;;7.62;87.21;101296.36;103656;1298;61084;-79
2022/10/13 00:18:55;;;;;;;13.10;7.70;;;;;;;7.60;87.37;101290.13;104089;1297;60423;-78
2022/10/13 00:21:24;;;;;;;12.40;7.40;;;;;;;7.60;87.90;101286.27;103897;1294;72303;-79
2022/10/13 00:23:52;;;;;;;13.60;7.40;;;;;;;7.60;88.01;101285.02;104323;1298;72413;-79
2022/10/13 00:26:21;;;;;;;13.40;7.80;;;;;;;7.62;88.07;101282.24;103581;1298;72476;-78
2022/10/13 00:28:48;;;;;;;12.80;7.60;;;;;;;7.64;88.33;101282.95;103634;1295;59660;-78
2022/10/13 00:31:21;;;;;;;11.80;7.90;;;;;;;7.66;88.07;101283.43;104752;1287;59312;-79
2022/10/13 00:33:48;;;;;;;10.30;7.40;;;;;;;7.69;88.24;101284.05;103892;1298;73453;-78
2022/10/13 00:36:15;;;;;;;12.10;7.50;;;;;;;7.72;88.39;101286.38;103872;1295;71135;-79
2022/10/13 00:38:42;;;;;;;12.40;7.70;;;;;;;7.76;88.49;101285.73;104092;1298;72992;-78
2022/10/13 00:41:09;;;;;;;12.00;7.40;;;;;;;7.79;88.44;101288.05;104017;1298;60624;-78
2022/10/13 00:43:55;;;;;;;14.30;7.70;;;;;;;7.83;88.47;101288.61;103772;1296;59709;-79
2022/10/13 00:46:25;;;;;;;13.60;8.10;;;;;;;7.87;88.80;101290.82;103718;1300;73925;-79
2022/10/13 00:48:52;;;;;;;13.80;7.50;;;;;;;7.92;88.73;101286.55;104032;1296;70904;-79
2022/10/13 00:51:23;;;;;;;12.60;7.30;;;;;;;7.95;88.39;101286.02;104154;1284;70348;-78
2022/10/13 00:53:51;;;;;;;12.20;7.80;;;;;;;7.99;88.45;101285.71;104093;1297;61945;-79
2022/10/13 00:56:20;;;;;;;14.60;7.20;;;;;;;8.03;88.38;101287.64;103492;1298;60630;-79
2022/10/13 00:58:47;;;;;;;10.90;7.30;;;;;;;8.06;88.33;101285.36;103539;1297;73066;-78
2022/10/13 01:01:14;;;;;;;11.90;7.40;;;;;;;8.09;88.49;101286.48;103640;1289;69617;-79
2022/10/13 01:03:41;;;;;;;11.30;7.60;;;;;;;8.12;88.44;101280.77;103585;1303;71104;-79
2022/10/13 01:06:08;;;;;;;11.90;6.80;;;;;;;8.15;88.06;101279.81;103646;1298;60497;-78
2022/10/13 01:08:35;;;;;;;12.50;7.50;;;;;;;8.17;88.02;101282.25;104280;1300;59206;-78
2022/10/13 01:11:19;;;;;;;13.40;6.90;;;;;;;8.20;88.01;101280.20;103708;1298;73609;-78
2022/10/13 01:13:58;;;;;;;13.20;7.50;;;;;;;8.24;88.50;101277.75;104092;1304;71669;-78
2022/10/13 01:16:42;;;;;;;12.90;7.90;;;;;;;8.27;89.04;101273.03;103874;1289;71866;-78
2022/10/13 01:19:46;;;;;;;13.10;7.90;;;;;;;8.32;89.44;101270.22;104194;1302;60672;-79
2022/10/13 01:22:47;;;;;;;17.00;7.70;;;;;;;8.40;89.98;101273.38;104068;1297;59665;-79
2022/10/13 01:25:29;;;;;;;13.90;8.20;;;;;;;8.49;90.13;101274.96;104348;1294;72718;-78
2022/10/13 01:28:24;;;;;;;14.10;8.50;;;;;;;8.58;90.35;101274.16;104334;1296;70908;-79
2022/10/13 01:30:59;;;;;;;11.10;7.00;;;;;;;8.67;90.47;101268.74;103875;1299;71291;-78
2022/10/13 01:33:38;;;;;;;13.50;7.30;;;;;;;8.73;90.22;101268.85;104235;1302;61055;-79
2022/10/13 01:36:20;;;;;;;10.10;7.00;;;;;;;8.79;90.26;101266.98;104110;1297;60378;-78
2022/10/13 01:38:59;;;;;;;12.90;7.40;;;;;;;8.85;90.10;101263.73;104075;1299;71857;-78
2022/10/13 01:41:34;;;;;;;10.30;6.60;;;;;;;8.91;90.04;101263.05;104041;1297;70010;-78
2022/10/13 01:44:15;;;;;;;12.20;7.20;;;;;;;8.93;89.71;101255.86;104206;1294;73086;-78
2022/10/13 01:46:45;;;;;;;14.00;7.00;;;;;;;8.97;89.74;101250.05;103720;1294;60686;-78
2022/10/13 01:49:16;;;;;;;14.60;7.70;;;;;;;9.00;89.38;101248.21;103845;1296;60473;-79
2022/10/13 01:51:43;;;;;;;13.20;7.60;;;;;;;9.02;89.60;101246.46;104251;1295;73928;-78
2022/10/13 01:54:10;;;;;;;16.20;7.60;;;;;;;9.04;89.16;101251.02;104270;1290;71159;-78
2022/10/13 01:56:36;;;;;;;12.80;7.10;;;;;;;9.06;89.26;101246.62;103730;1297;71406;-77
2022/10/13 01:59:11;;;;;;;11.00;7.00;;;;;;;9.07;89.16;101246.46;104008;1297;60515;-78
2022/10/13 02:01:45;;;;;;;11.40;6.90;;;;;;;9.06;88.91;101240.59;104113;1298;60491;-78
2022/10/13 02:05:22;;;;;;;12.30;6.70;;;;;;;9.04;88.51;101239.36;104062;1291;76210;-78
2022/10/13 02:08:15;;;;;;;12.90;6.90;;;;;;;8.96;88.20;101234.76;102812;1301;71055;-78
2022/10/13 02:10:54;;;;;;;13.10;6.70;;;;;;;8.90;87.87;101235.79;103202;1300;70529;-78
2022/10/13 02:13:25;;;;;;;11.60;7.20;;;;;;;8.84;87.76;101230.88;104042;1297;61651;-78
2022/10/13 02:15:58;;;;;;;15.30;7.30;;;;;;;8.78;88.12;101232.30;104115;1295;61499;-78
2022/10/13 02:18:34;;;;;;;13.00;7.20;;;;;;;8.75;87.91;101226.81;104263;1302;74701;-80
2022/10/13 02:21:03;;;;;;;13.10;7.50;;;;;;;8.74;88.32;101228.20;104357;1294;70398;-78
2022/10/13 02:23:30;;;;;;;13.40;7.90;;;;;;;8.73;88.47;101222.27;103510;1300;72507;-78
2022/10/13 02:25:58;;;;;;;15.90;8.20;;;;;;;8.72;88.53;101224.30;103847;1302;61108;-78
2022/10/13 02:28:25;;;;;;;12.60;7.50;;;;;;;8.70;88.49;101221.11;103893;1292;60494;-79
2022/10/13 02:30:52;;;;;;;12.40;7.70;;;;;;;8.70;88.55;101221.54;104077;1297;73640;-78
2022/10/13 02:33:19;;;;;;;13.70;7.80;;;;;;;8.70;88.96;101217.48;104114;1297;58264;-78
2022/10/13 02:35:45;;;;;;;13.80;7.70;;;;;;;8.70;88.89;101221.80;103654;1297;60724;-78
2022/10/13 02:38:11;;;;;;;12.10;8.00;;;;;;;8.73;88.99;101213.83;104399;1297;59462;-79
2022/10/13 02:40:38;;;;;;;13.30;8.30;;;;;;;8.76;89.23;101213.20;103932;1297;60456;-77
2022/10/13 02:43:04;;;;;;;14.70;8.50;;;;;;;8.78;89.47;101212.82;103993;1298;58455;-79
2022/10/13 02:45:31;;;;;;;16.70;9.00;;;;;;;8.79;89.57;101209.88;103875;1297;62082;-77
2022/10/13 02:47:57;;;;;;;15.20;8.40;;;;;;;8.79;89.41;101210.08;104329;1297;60613;-78
2022/10/13 02:50:24;;;;;;;13.30;8.40;;;;;;;8.78;89.96;101212.77;104499;1297;59166;-80
2022/10/13 02:52:50;;;;;;;16.80;8.80;;;;;;;8.78;89.98;101209.02;103315;1298;60481;-78
2022/10/13 02:55:17;;;;;;;13.40;8.30;;;;;;;8.78;90.08;101212.56;104244;1294;59645;-78
2022/10/13 02:57:43;;;;;;;15.00;8.90;;;;;;;8.78;90.44;101215.48;103803;1298;59709;-78
2022/10/13 03:00:10;;;;;;;13.20;8.90;;;;;;;8.75;90.35;101216.23;104461;1302;60625;-78
2022/10/13 03:02:37;;;;;;;16.40;9.40;;;;;;;8.75;90.73;101212.43;103709;1298;60589;-77
2022/10/13 03:05:03;;;;;;;14.50;8.80;;;;;;;8.73;90.74;101211.15;104026;1298;62236;-78
2022/10/13 03:07:30;;;;;;;16.60;9.80;;;;;;;8.72;90.84;101209.69;103684;1298;73111;-77
2022/10/13 03:09:56;;;;;;;14.70;8.70;;;;;;;8.71;91.29;101207.84;104344;1294;70279;-78
2022/10/13 03:12:23;;;;;;;15.30;9.40;;;;;;;8.70;91.34;101204.38;103941;1295;60553;-79
2022/10/13 03:14:49;;;;;;;15.50;10.00;;;;;;;8.71;91.41;101198.53;104110;1300;58692;-78
2022/10/13 03:17:16;;;;;;;13.20;9.40;;;;;;;8.72;91.64;101200.49;103562;1296;59507;-78
2022/10/13 03:19:43;;;;;;;16.20;9.10;;;;;;;8.73;91.33;101199.84;103926;1299;72944;-77
2022/10/13 03:22:13;;;;;;;19.10;9.70;;;;;;;8.76;91.74;101199.77;103666;1295;60597;-78
2022/10/13 03:24:40;;;;;;;16.20;9.90;;;;;;;8.78;91.48;101196.70;103998;1297;73096;-78
2022/10/13 03:27:07;;;;;;;17.30;9.60;;;;;;;8.81;91.43;101195.74;103667;1296;60678;-78
2022/10/13 03:29:33;;;;;;;15.00;9.40;;;;;;;8.84;91.68;101197.91;104231;1300;60620;-78
2022/10/13 03:32:00;;;;;;;14.40;9.40;;;;;;;8.88;91.33;101195.98;103636;1297;59642;-77
2022/10/13 03:34:26;;;;;;;19.70;10.00;;;;;;;8.90;91.64;101197.52;104494;1294;59560;-78
2022/10/13 03:36:53;;;;;;;15.50;9.80;;;;;;;8.93;91.39;101194.53;103596;1304;59376;-78
2022/10/13 03:39:20;;;;;;;14.30;9.80;;;;;;;8.96;91.51;101202.90;103585;1296;60357;-78
2022/10/13 03:41:47;;;;;;;18.50;10.10;;;;;;;9.00;91.70;101199.66;103913;1294;60495;-77
2022/10/13 03:44:13;;;;;;;16.00;9.30;;;;;;;9.05;91.65;101199.44;103920;1294;59369;-78
2022/10/13 03:46:40;;;;;;;16.40;10.20;;;;;;;9.07;91.67;101196.52;103669;1298;61477;-78
2022/10/13 03:49:08;;;;;;;15.90;9.60;;;;;;;9.10;91.70;101195.01;104098;1297;59087;-77
2022/10/13 03:51:34;;;;;;;19.40;10.70;;;;;;;9.13;91.95;101194.91;104156;1297;60478;-78
2022/10/13 03:54:00;;;;;;;16.70;10.80;;;;;;;9.16;92.16;101197.22;103962;1295;60899;-77
2022/10/13 03:56:27;;;;;;;17.50;10.60;;;;;;;9.19;92.01;101195.03;103574;1298;60569;-77
2022/10/13 03:58:56;;;;;;;17.00;10.50;;;;;;;9.21;92.33;101192.29;104223;1297;71026;-78
2022/10/13 04:01:25;;;;;;;17.30;10.30;;;;;;;9.24;92.28;101192.32;104006;1300;72456;-78
2022/10/13 04:03:54;;;;;;;16.50;10.30;;;;;;;9.28;92.27;101195.10;103961;1302;61197;-78
2022/10/13 04:06:22;;;;;;;20.00;10.90;;;;;;;9.31;92.41;101197.83;103912;1294;59864;-79
2022/10/13 04:08:49;;;;;;;15.70;10.10;;;;;;;9.34;92.41;101192.27;104060;1296;71356;-78
2022/10/13 04:11:15;;;;;;;16.00;10.40;;;;;;;9.38;92.32;101190.80;104222;1304;69547;-77
2022/10/13 04:13:43;;;;;;;19.80;10.70;;;;;;;9.41;92.54;101191.21;104033;1290;71331;-78
2022/10/13 04:16:20;;;;;;;18.60;10.60;;;;;;;9.44;92.40;101196.23;103385;1295;60535;-78
2022/10/13 04:18:53;;;;;;;17.00;10.70;;;;;;;9.46;92.21;101192.27;104212;1296;60141;-78
2022/10/13 04:21:21;;;;;;;15.20;9.90;;;;;;;9.50;92.22;101195.43;103544;1297;73892;-78
2022/10/13 04:23:48;;;;;;;16.20;9.90;;;;;;;9.52;92.15;101197.80;103835;1296;69515;-77
2022/10/13 04:26:18;;;;;;;15.40;10.30;;;;;;;9.54;92.14;101198.52;104117;1296;71895;-79
2022/10/13 04:28:46;;;;;;;18.90;10.40;;;;;;;9.57;92.22;101196.98;103931;1295;62120;-78
2022/10/13 04:31:13;;;;;;;18.70;10.30;;;;;;;9.59;92.18;101197.15;104520;1302;60368;-80
2022/10/13 04:33:40;;;;;;;17.90;10.00;;;;;;;9.60;92.42;101191.38;103500;1303;75784;-79
2022/10/13 04:36:10;;;;;;;16.70;9.90;;;;;;;9.61;92.19;101190.25;103749;1295;70669;-79
2022/10/13 04:38:37;;;;;;;16.20;10.30;;;;;;;9.62;92.06;101183.73;104532;1294;72472;-80
2022/10/13 04:41:05;;;;;;;16.40;10.40;;;;;;;9.63;91.98;101181.41;104383;1294;60597;-79
2022/10/13 04:43:33;;;;;;;16.40;10.80;;;;;;;9.64;92.13;101181.45;104388;1300;60138;-79
2022/10/13 04:46:01;;;;;;;15.40;10.20;;;;;;;9.66;92.14;101177.88;104183;1301;73655;-81
2022/10/13 04:48:28;;;;;;;15.70;10.50;;;;;;;9.67;91.82;101176.91;104298;1294;71005;-80
2022/10/13 04:51:06;;;;;;;16.00;10.50;;;;;;;9.68;91.58;101169.06;104358;1304;73588;-80
2022/10/13 04:53:32;;;;;;;16.70;10.90;;;;;;;9.67;91.81;101166.12;103810;1298;62054;-80
2022/10/13 04:56:04;;;;;;;16.30;10.80;;;;;;;9.67;91.83;101166.11;104214;1295;60522;-79
2022/10/13 04:58:31;;;;;;;18.00;11.50;;;;;;;9.67;91.69;101171.61;104122;1302;73465;-80
2022/10/13 05:00:58;;;;;;;17.80;11.20;;;;;;;9.68;91.84;101172.17;104643;1304;70901;-81
2022/10/13 05:03:25;;;;;;;18.40;11.40;;;;;;;9.69;91.89;101166.59;104350;1300;72806;-80
2022/10/13 05:05:52;;;;;;;20.60;11.70;;;;;;;9.70;91.72;101167.06;104403;1294;59577;-79
2022/10/13 05:08:19;;;;;;;18.00;10.90;;;;;;;9.71;91.65;101169.60;104054;1296;60607;-80
2022/10/13 05:10:56;;;;;;;31.50;12.60;;;;;;;9.71;91.90;101168.30;104209;1296;73725;-81
2022/10/13 05:13:24;;;;;;;18.50;12.10;;;;;;;9.73;91.87;101162.64;104170;1296;68981;-80
2022/10/13 05:15:51;;;;;;;19.20;11.90;;;;;;;9.73;91.74;101162.27;104128;1294;72090;-79
2022/10/13 05:18:18;;;;;;;19.70;11.90;;;;;;;9.73;91.72;101158.57;104220;1291;60740;-81
2022/10/13 05:20:45;;;;;;;17.10;11.40;;;;;;;9.74;91.79;101161.91;104279;1294;60598;-81
2022/10/13 05:23:13;;;;;;;18.70;11.40;;;;;;;9.74;91.91;101159.03;104215;1294;73085;-81
2022/10/13 05:25:39;;;;;;;15.10;10.90;;;;;;;9.73;92.05;101151.88;104362;1288;71011;-80
2022/10/13 05:28:06;;;;;;;15.90;11.20;;;;;;;9.73;92.08;101151.73;104613;1296;70460;-78
2022/10/13 05:30:33;;;;;;;16.20;11.20;;;;;;;9.73;92.00;101153.99;103998;1291;60391;-81
2022/10/13 05:33:00;;;;;;;23.70;11.70;;;;;;;9.73;92.30;101152.27;104136;1301;60517;-81
2022/10/13 05:35:27;;;;;;;20.20;11.70;;;;;;;9.72;92.22;101154.25;104044;1296;71461;-82
2022/10/13 05:37:53;;;;;;;15.80;11.00;;;;;;;9.73;92.37;101153.27;103681;1294;71004;-81
2022/10/13 05:40:23;;;;;;;15.80;11.20;;;;;;;9.73;92.57;101153.48;104337;1295;60847;-81
2022/10/13 05:42:50;;;;;;;17.00;11.00;;;;;;;9.74;92.55;101154.97;104090;1294;61833;-78
2022/10/13 05:45:18;;;;;;;21.20;14.40;;;;;;;9.78;92.66;101154.73;103906;1294;61163;-78
2022/10/13 05:47:44;;;;;;;75.70;50.50;;;;;;;9.81;92.68;101154.42;103884;1297;72622;-78
2022/10/13 05:50:11;;;;;;;23.70;15.90;;;;;;;9.85;92.55;101151.03;103071;1304;60446;-78
2022/10/13 05:52:37;;;;;;;25.10;16.50;;;;;;;9.87;92.32;101153.16;103453;1295;60492;-77
2022/10/13 05:55:07;;;;;;;42.90;30.80;;;;;;;9.87;92.23;101146.94;103025;1301;60673;-78
2022/10/13 05:57:39;;;;;;;26.70;15.90;;;;;;;9.87;91.92;101144.48;103415;1300;61443;-77
2022/10/13 06:00:15;;;;;;;15.00;11.20;;;;;;;9.90;92.03;101141.73;103588;1304;72407;-77
2022/10/13 06:03:01;;;;;;;23.20;15.30;;;;;;;9.91;92.19;101138.02;103733;1302;68813;-77
2022/10/13 06:05:31;;;;;;;18.30;11.50;;;;;;;9.94;92.00;101134.53;103068;1302;70679;-77
2022/10/13 06:07:59;;;;;;;19.50;12.70;;;;;;;9.95;91.78;101128.73;102777;1301;62314;-76
2022/10/13 06:10:26;;;;;;;19.60;12.00;;;;;;;9.97;91.59;101126.77;103220;1302;61056;-77
2022/10/13 06:12:52;;;;;;;21.60;12.10;;;;;;;9.99;91.62;101126.25;103440;1295;74170;-77
2022/10/13 06:15:19;;;;;;;21.10;12.60;;;;;;;10.01;91.71;101129.20;103136;1304;60391;-79
2022/10/13 06:17:51;;;;;;;25.40;16.10;;;;;;;10.05;91.76;101131.33;104398;1295;73541;-77
2022/10/13 06:20:17;;;;;;;20.20;14.50;;;;;;;10.07;91.92;101134.55;103614;1294;59327;-77
2022/10/13 06:22:45;;;;;;;19.80;12.30;;;;;;;10.11;91.89;101133.88;104239;1297;60482;-79
2022/10/13 06:25:11;;;;;;;39.20;24.10;;;;;;;10.14;91.72;101129.08;102687;1302;72748;-78
2022/10/13 06:27:38;;;;;;;17.80;11.70;;;;;;;10.18;91.66;101130.04;103147;1304;60633;-78
2022/10/13 06:30:05;;;;;;;20.00;13.00;;;;;;;10.22;91.42;101128.20;102275;1302;60596;-78
2022/10/13 06:32:32;;;;;;;16.60;11.70;;;;;;;10.27;91.43;101128.98;103245;1300;61076;-78
2022/10/13 06:34:58;;;;;;;18.30;10.90;;;;;;;10.30;91.23;101129.41;103435;1288;62633;-78
2022/10/13 06:37:25;;;;;;;32.30;19.80;;;;;;;10.33;90.98;101127.27;104265;1301;60352;-76
2022/10/13 06:39:53;;;;;;;17.30;10.80;;;;;;;10.37;91.07;101127.37;102487;1298;70903;-77
2022/10/13 06:42:19;;;;;;;16.20;10.70;;;;;;;10.41;90.80;101119.02;104127;1301;72446;-77
2022/10/13 06:44:46;;;;;;;17.40;10.70;;;;;;;10.45;90.71;101120.95;102652;1291;60835;-77
2022/10/13 06:47:13;;;;;;;19.00;12.00;;;;;;;10.49;90.83;101123.16;102672;1296;61956;-77
2022/10/13 06:49:40;;;;;;;19.80;10.90;;;;;;;10.53;90.59;101119.11;102416;1300;71793;-77
2022/10/13 06:52:06;;;;;;;19.90;14.00;;;;;;;10.57;90.48;101123.89;103974;1301;60513;-77
2022/10/13 06:54:33;;;;;;;17.30;10.50;;;;;;;10.59;90.25;101124.55;103168;1303;60361;-76
2022/10/13 06:56:59;;;;;;;22.60;13.00;;;;;;;10.61;90.19;101133.51;102982;1302;60369;-77
2022/10/13 06:59:26;;;;;;;13.30;10.20;;;;;;;10.65;90.15;101134.47;103238;1294;60524;-77
2022/10/13 07:01:53;;;;;;;15.70;10.70;;;;;;;10.70;89.89;101128.56;103346;1301;75320;-77
2022/10/13 07:04:19;;;;;;;18.90;13.50;;;;;;;10.72;89.65;101120.91;103184;1298;69651;-76
2022/10/13 07:06:46;;;;;;;18.40;11.50;;;;;;;10.75;89.70;101119.69;102644;1294;60621;-77
2022/10/13 07:09:13;;;;;;;19.10;11.80;;;;;;;10.79;89.36;101122.23;103396;1297;60694;-77
2022/10/13 07:11:43;;;;;;;20.30;10.70;;;;;;;10.82;89.18;101117.29;103568;1295;59576;-77
2022/10/13 07:14:09;;;;;;;14.20;10.20;;;;;;;10.85;89.15;101117.33;103549;1304;73607;-76
2022/10/13 07:16:36;;;;;;;17.70;11.00;;;;;;;10.91;89.05;101120.19;102798;1302;60477;-77
2022/10/13 07:19:02;;;;;;;17.30;10.60;;;;;;;10.97;89.01;101119.05;103193;1302;60503;-77
2022/10/13 07:21:29;;;;;;;17.90;10.80;;;;;;;11.02;88.72;101117.59;102484;1302;60566;-76
2022/10/13 07:23:55;;;;;;;18.60;11.90;;;;;;;11.07;88.60;101121.00;102563;1302;60569;-78
2022/10/13 07:26:22;;;;;;;35.20;27.00;;;;;;;11.10;88.46;101130.23;102159;1291;60638;-77
2022/10/13 07:28:48;;;;;;;19.50;13.80;;;;;;;11.13;88.56;101135.36;104179;1291;60567;-77
2022/10/13 07:31:17;;;;;;;21.50;13.20;;;;;;;11.16;88.49;101137.52;103070;1304;72649;-76
2022/10/13 07:33:46;;;;;;;16.60;10.50;;;;;;;11.21;88.48;101136.41;103220;1288;61741;-77
2022/10/13 07:36:13;;;;;;;18.00;11.30;;;;;;;11.29;88.14;101118.14;102791;1278;60479;-77
2022/10/13 07:38:40;;;;;;;29.60;23.80;;;;;;;11.42;88.32;101120.84;102890;1298;72907;-77
2022/10/13 07:41:09;;;;;;;17.70;10.20;;;;;;;11.55;87.63;101117.25;102615;1301;70825;-78
2022/10/13 07:43:36;;;;;;;16.30;11.40;;;;;;;11.64;86.94;101117.84;105032;1297;71196;-77
2022/10/13 07:46:04;;;;;;;15.50;10.70;;;;;;;11.77;86.76;101116.37;105354;1295;61844;-77
2022/10/13 07:48:32;;;;;;;19.90;11.10;;;;;;;11.93;86.17;101118.42;105087;1297;60142;-79
2022/10/13 07:51:03;;;;;;;17.70;10.60;;;;;;;12.10;86.05;101113.78;102610;1303;71313;-77
2022/10/13 07:53:29;;;;;;;16.50;10.20;;;;;;;12.30;85.26;101114.66;105385;1299;70956;-78
2022/10/13 07:56:00;;;;;;;14.60;10.00;;;;;;;12.52;84.72;101108.14;105462;1296;72604;-77
2022/10/13 07:58:27;;;;;;;15.10;10.10;;;;;;;12.78;84.27;101110.77;104641;1298;61251;-77
2022/10/13 08:00:58;;;;;;;16.30;9.80;;;;;;;12.98;82.91;101110.15;102728;1302;60541;-77
2022/10/13 08:03:26;;;;;;;14.70;10.20;;;;;;;13.13;81.59;101107.36;103366;1301;72600;-77
2022/10/13 08:05:53;;;;;;;19.60;10.00;;;;;;;13.29;81.40;101099.91;103505;1298;69968;-78
2022/10/13 08:08:20;;;;;;;13.20;9.30;;;;;;;13.42;80.56;101096.05;104274;1302;71013;-78
2022/10/13 08:10:47;;;;;;;16.90;10.10;;;;;;;13.52;79.91;101103.02;103532;1303;61536;-78
2022/10/13 08:13:13;;;;;;;16.10;10.00;;;;;;;13.54;79.50;101111.17;103024;1301;60774;-78
2022/10/13 08:15:41;;;;;;;14.60;10.10;;;;;;;13.55;78.76;101105.65;103656;1297;60533;-78
2022/10/13 08:18:09;;;;;;;18.10;9.70;;;;;;;13.56;79.03;101102.66;104213;1303;71339;-78
2022/10/13 08:20:43;;;;;;;16.70;9.80;;;;;;;13.60;78.60;101098.91;104034;1293;71546;-78
2022/10/13 08:23:13;;;;;;;13.70;9.60;;;;;;;13.64;78.36;101087.20;104320;1300;63226;-78
2022/10/13 08:25:40;;;;;;;15.40;8.90;;;;;;;13.70;78.09;101088.30;103553;1297;60573;-78
2022/10/13 08:28:27;;;;;;;14.70;9.30;;;;;;;13.77;78.03;101086.41;103315;1298;72635;-77
2022/10/13 08:30:58;;;;;;;14.00;9.30;;;;;;;13.85;77.65;101079.90;103130;1303;71624;-78
2022/10/13 08:33:25;;;;;;;15.20;9.10;;;;;;;13.92;77.38;101072.88;102958;1304;71092;-77
2022/10/13 08:35:52;;;;;;;13.90;9.50;;;;;;;13.98;76.98;101072.13;104018;1288;61746;-77
2022/10/13 08:38:19;;;;;;;14.20;8.80;;;;;;;14.08;76.98;101079.56;103171;1302;60490;-76
2022/10/13 08:40:48;;;;;;;14.70;9.30;;;;;;;14.20;76.64;101083.48;104873;1295;71898;-78
2022/10/13 08:43:17;;;;;;;15.40;9.70;;;;;;;14.29;76.10;101081.07;105039;1293;71029;-77
2022/10/13 08:45:44;;;;;;;15.20;8.30;;;;;;;14.43;76.23;101076.50;105027;1293;70290;-78
2022/10/13 08:48:21;;;;;;;18.00;12.20;;;;;;;14.60;75.45;101076.96;102820;1297;61398;-78
2022/10/13 08:50:51;;;;;;;32.40;24.70;;;;;;;14.73;74.49;101072.31;104118;1301;61209;-78
2022/10/13 08:53:33;;;;;;;22.40;15.10;;;;;;;14.86;74.36;101069.58;103630;1297;75166;-78
2022/10/13 08:56:08;;;;;;;18.60;12.90;;;;;;;14.92;73.46;101072.45;103421;1302;71263;-77
2022/10/13 08:58:39;;;;;;;13.60;8.40;;;;;;;14.98;73.58;101076.21;104136;1297;71943;-78
2022/10/13 09:01:27;;;;;;;17.10;11.20;;;;;;;15.11;73.63;101086.08;102521;1306;62385;-75
2022/10/13 09:04:09;;;;;;;11.40;8.70;;;;;;;15.20;72.45;101087.95;103503;1297;60356;-77
2022/10/13 09:06:41;;;;;;;10.90;7.00;;;;;;;15.20;71.85;101082.11;102651;1287;73900;-78
2022/10/13 09:09:10;;;;;;;20.20;12.80;;;;;;;15.15;71.51;101077.72;102603;1302;71486;-76
2022/10/13 09:11:39;;;;;;;15.90;10.20;;;;;;;15.11;71.38;101081.26;102472;1301;72721;-78
2022/10/13 09:14:31;;;;;;;15.10;9.20;;;;;;;15.11;71.28;101075.64;103606;1304;62119;-78
2022/10/13 09:17:22;;;;;;;12.70;8.30;;;;;;;15.08;70.80;101074.75;102827;1302;63712;-77
2022/10/13 09:20:14;;;;;;;12.70;8.30;;;;;;;15.14;71.09;101080.63;103613;1303;73895;-77
2022/10/13 09:22:41;;;;;;;13.50;9.00;;;;;;;15.10;70.72;101077.23;102703;1294;70486;-77
2022/10/13 09:25:11;;;;;;;26.20;19.70;;;;;;;15.13;71.02;101077.24;102897;1297;72360;-77
2022/10/13 09:27:55;;;;;;;12.50;8.30;;;;;;;15.20;70.83;101087.33;103009;1302;61232;-78
2022/10/13 09:30:40;;;;;;;12.40;7.30;;;;;;;15.26;70.63;101093.41;102523;1299;60600;-77
2022/10/13 09:33:12;;;;;;;11.30;7.10;;;;;;;15.29;70.06;101090.85;104047;1302;72990;-77
2022/10/13 09:35:59;;;;;;;21.10;16.00;;;;;;;15.27;70.29;101086.10;103128;1294;70904;-76
2022/10/13 09:38:26;;;;;;;13.30;8.60;;;;;;;15.31;70.41;101090.94;103017;1302;72512;-77
2022/10/13 09:41:07;;;;;;;13.70;6.80;;;;;;;15.27;69.72;101091.13;102849;1284;61125;-77
2022/10/13 09:43:46;;;;;;;9.90;5.90;;;;;;;15.35;70.07;101078.50;103226;1302;61137;-76
2022/10/13 09:46:21;;;;;;;15.30;10.00;;;;;;;15.37;69.48;101082.30;103328;1294;71894;-76
2022/10/13 09:48:52;;;;;;;9.70;6.30;;;;;;;15.35;68.98;101077.96;103460;1295;71013;-76
2022/10/13 09:51:35;;;;;;;9.20;6.50;;;;;;;15.37;68.99;101073.70;103758;1298;72274;-77
2022/10/13 09:54:03;;;;;;;19.40;11.70;;;;;;;15.39;68.92;101076.25;103258;1294;61743;-77
2022/10/13 09:56:45;;;;;;;10.50;6.80;;;;;;;15.39;68.75;101082.43;102639;1300;60864;-77
2022/10/13 09:59:32;;;;;;;12.10;6.90;;;;;;;15.45;68.63;101079.86;103037;1308;74817;-77
2022/10/13 10:02:11;;;;;;;10.20;6.20;;;;;;;15.53;68.64;101080.11;103349;1292;70918;-77
2022/10/13 10:04:44;;;;;;;9.80;6.00;;;;;;;15.55;68.13;101078.67;102948;1300;71397;-77
2022/10/13 10:07:16;;;;;;;10.40;6.20;;;;;;;15.56;68.36;101077.62;103750;1303;62080;-77
2022/10/13 10:09:51;;;;;;;10.50;5.80;;;;;;;15.58;68.17;101077.88;104924;1294;59098;-78
2022/10/13 10:12:22;;;;;;;10.50;6.00;;;;;;;15.63;68.18;101077.52;105218;1295;73631;-78
2022/10/13 10:14:53;;;;;;;9.60;6.60;;;;;;;15.76;68.42;101074.82;103296;1304;70087;-77
2022/10/13 10:17:26;;;;;;;10.20;6.10;;;;;;;15.86;67.77;101069.38;103833;1297;72516;-76
2022/10/13 10:20:11;;;;;;;11.20;6.20;;;;;;;15.98;67.41;101061.09;103079;1304;61402;-77
2022/10/13 10:23:04;;;;;;;11.20;6.20;;;;;;;16.14;67.52;101058.13;103311;1305;60178;-78
2022/10/13 10:25:43;;;;;;;11.90;6.20;;;;;;;16.29;67.06;101056.27;103597;1295;73657;-78
2022/10/13 10:28:38;;;;;;;10.80;6.00;;;;;;;16.45;66.97;101053.00;103777;1304;69652;-77
2022/10/13 10:31:27;;;;;;;8.80;5.60;;;;;;;16.48;65.85;101049.04;104114;1297;72803;-77
2022/10/13 10:34:09;;;;;;;9.80;5.50;;;;;;;16.59;66.01;101049.54;103806;1301;60474;-75
2022/10/13 10:37:05;;;;;;;11.70;5.50;;;;;;;16.72;66.00;101056.41;103498;1304;60530;-76
2022/10/13 10:39:43;;;;;;;10.80;5.80;;;;;;;16.88;64.86;101056.48;103414;1305;73881;-76
2022/10/13 10:42:47;;;;;;;9.20;5.60;;;;;;;16.95;64.04;101054.53;103343;1297;71411;-77
2022/10/13 10:45:23;;;;;;;7.30;5.90;;;;;;;16.95;64.10;101048.18;104151;1297;73148;-76
2022/10/13 10:47:55;;;;;;;8.10;5.30;;;;;;;17.08;64.06;101046.48;104422;1298;61378;-76
2022/10/13 10:50:22;;;;;;;7.70;4.60;;;;;;;17.25;63.62;101038.92;103769;1302;59420;-74
2022/10/13 10:53:07;;;;;;;6.80;4.60;;;;;;;17.36;63.06;101042.39;104042;1297;252900;-75
2022/10/13 10:55:53;;;;;;;8.40;5.00;;;;;;;17.40;62.01;101036.85;103346;1297;70894;-74
2022/10/13 10:58:38;;;;;;;10.00;5.60;;;;;;;17.40;62.01;101031.29;103694;1302;71609;-75
2022/10/13 11:01:31;;;;;;;9.40;5.10;;;;;;;17.53;62.28;101023.48;103929;1295;60904;-74
2022/10/13 11:04:18;;;;;;;8.40;5.10;;;;;;;17.52;61.47;101028.77;105003;1295;58904;-76
2022/10/13 11:06:45;;;;;;;10.30;5.40;;;;;;;17.58;61.79;101020.36;105284;1296;73679;-75
2022/10/13 11:09:11;;;;;;;9.80;5.70;;;;;;;17.68;61.48;101017.43;105507;1288;58185;-75
2022/10/13 11:11:41;;;;;;;9.50;5.50;;;;;;;17.91;61.28;101012.55;105394;1291;58508;-75
2022/10/13 11:14:23;;;;;;;9.40;5.30;;;;;;;18.17;60.80;101007.20;105356;1295;60163;-74
2022/10/13 11:16:59;;;;;;;9.90;5.00;;;;;;;18.32;59.97;101000.77;105431;1294;59018;-74
2022/10/13 11:19:35;;;;;;;6.30;4.60;;;;;;;18.53;59.86;100997.83;105404;1299;73877;-74
2022/10/13 11:22:01;;;;;;;8.60;5.00;;;;;;;18.61;58.84;100986.11;103215;1305;71779;-73
2022/10/13 11:24:40;;;;;;;9.90;4.80;;;;;;;18.78;57.72;100986.36;103415;1296;60476;-74
2022/10/13 11:27:06;;;;;;;9.00;4.70;;;;;;;19.01;57.41;100973.44;102997;1297;61790;-74
2022/10/13 11:29:59;;;;;;;9.10;4.70;;;;;;;19.36;56.56;100972.70;102757;1301;60575;-74
2022/10/13 11:35:04;;;;;;;6.90;4.10;;;;;;;20.59;53.57;100966.85;102465;1295;69610;-74